sensor_id;sensor_type;location;lat;lon;timestamp;pressure;altitude;pressure_sealevel;temperature;humidity
22651;BME280;11492;42.646;23.400;2023-02-17T00:00:20;95970.22;;;3.39;56.87
22651;BME280;11492;42.646;23.400;2023-02-17T00:02:46;95974.66;;;3.37;57.00
22651;BME280;11492;42.646;23.400;2023-02-17T00:05:11;95962.69;;;3.26;57.82
22651;BME280;11492;42.646;23.400;2023-02-17T00:07:36;95961.03;;;3.25;57.48
22651;BME280;11492;42.646;23.400;2023-02-17T00:10:04;95970.22;;;3.28;57.13
22651;BME280;11492;42.646;23.400;2023-02-17T00:12:29;95977.56;;;3.09;58.50
22651;BME280;11492;42.646;23.400;2023-02-17T00:14:55;95968.56;;;2.93;58.74
22651;BME280;11492;42.646;23.400;2023-02-17T00:17:20;95980.88;;;2.99;58.24
22651;BME280;11492;42.646;23.400;2023-02-17T00:19:45;95981.44;;;2.92;59.39
22651;BME280;11492;42.646;23.400;2023-02-17T00:22:11;95972.72;;;2.60;59.60
22651;BME280;11492;42.646;23.400;2023-02-17T00:24:38;95956.94;;;2.55;59.90
22651;BME280;11492;42.646;23.400;2023-02-17T00:27:04;95964.22;;;2.49;59.91
22651;BME280;11492;42.646;23.400;2023-02-17T00:29:31;95960.06;;;2.36;59.65
22651;BME280;11492;42.646;23.400;2023-02-17T00:31:57;95970.28;;;2.59;60.18
22651;BME280;11492;42.646;23.400;2023-02-17T00:34:22;95972.75;;;2.48;59.83
22651;BME280;11492;42.646;23.400;2023-02-17T00:36:48;95961.81;;;2.58;59.43
22651;BME280;11492;42.646;23.400;2023-02-17T00:39:15;95950.53;;;2.73;59.68
22651;BME280;11492;42.646;23.400;2023-02-17T00:41:41;95953.72;;;2.87;59.27
22651;BME280;11492;42.646;23.400;2023-02-17T00:44:06;95949.75;;;2.83;58.60
22651;BME280;11492;42.646;23.400;2023-02-17T00:46:33;95947.59;;;2.90;58.79
22651;BME280;11492;42.646;23.400;2023-02-17T00:48:59;95953.88;;;2.97;58.07
22651;BME280;11492;42.646;23.400;2023-02-17T00:51:24;95954.16;;;3.15;58.50
22651;BME280;11492;42.646;23.400;2023-02-17T00:53:50;95956.50;;;3.18;57.95
22651;BME280;11492;42.646;23.400;2023-02-17T00:56:16;95955.59;;;3.30;56.94
22651;BME280;11492;42.646;23.400;2023-02-17T00:58:41;95963.16;;;3.42;57.29
22651;BME280;11492;42.646;23.400;2023-02-17T01:01:09;95953.06;;;3.41;56.81
22651;BME280;11492;42.646;23.400;2023-02-17T01:03:34;95950.97;;;3.46;56.37
22651;BME280;11492;42.646;23.400;2023-02-17T01:06:07;95958.88;;;3.43;56.69
22651;BME280;11492;42.646;23.400;2023-02-17T01:08:33;95938.44;;;3.21;57.56
22651;BME280;11492;42.646;23.400;2023-02-17T01:10:58;95947.94;;;3.30;57.49
22651;BME280;11492;42.646;23.400;2023-02-17T01:13:24;95934.72;;;3.25;57.82
22651;BME280;11492;42.646;23.400;2023-02-17T01:15:51;95945.84;;;3.24;58.36
22651;BME280;11492;42.646;23.400;2023-02-17T01:18:18;95949.75;;;3.06;58.74
22651;BME280;11492;42.646;23.400;2023-02-17T01:20:44;95938.94;;;3.03;58.38
22651;BME280;11492;42.646;23.400;2023-02-17T01:23:10;95939.84;;;2.91;59.30
22651;BME280;11492;42.646;23.400;2023-02-17T01:25:41;95946.41;;;2.83;59.10
22651;BME280;11492;42.646;23.400;2023-02-17T01:28:07;95947.63;;;2.67;59.51
22651;BME280;11492;42.646;23.400;2023-02-17T01:30:34;95936.78;;;2.52;59.38
22651;BME280;11492;42.646;23.400;2023-02-17T01:32:59;95926.72;;;2.28;60.08
22651;BME280;11492;42.646;23.400;2023-02-17T01:35:25;95929.66;;;2.22;60.51
22651;BME280;11492;42.646;23.400;2023-02-17T01:37:50;95923.50;;;2.14;60.98
22651;BME280;11492;42.646;23.400;2023-02-17T01:40:16;95926.63;;;2.17;61.29
22651;BME280;11492;42.646;23.400;2023-02-17T01:42:42;95931.03;;;2.38;61.36
22651;BME280;11492;42.646;23.400;2023-02-17T01:45:32;95930.97;;;2.50;61.20
22651;BME280;11492;42.646;23.400;2023-02-17T01:50:32;95940.03;;;2.54;60.22
22651;BME280;11492;42.646;23.400;2023-02-17T01:53:00;95931.91;;;2.49;60.40
22651;BME280;11492;42.646;23.400;2023-02-17T01:55:26;95917.69;;;2.58;60.91
22651;BME280;11492;42.646;23.400;2023-02-17T01:57:56;95925.66;;;2.53;60.53
22651;BME280;11492;42.646;23.400;2023-02-17T02:00:25;95919.66;;;2.54;59.83
22651;BME280;11492;42.646;23.400;2023-02-17T02:02:53;95942.16;;;2.60;61.02
22651;BME280;11492;42.646;23.400;2023-02-17T02:05:19;95931.22;;;2.58;60.36
22651;BME280;11492;42.646;23.400;2023-02-17T02:07:46;95937.50;;;2.54;60.90
22651;BME280;11492;42.646;23.400;2023-02-17T02:10:13;95926.91;;;2.48;60.65
22651;BME280;11492;42.646;23.400;2023-02-17T02:12:40;95927.25;;;2.44;60.72
22651;BME280;11492;42.646;23.400;2023-02-17T02:15:28;95937.75;;;2.39;60.67
22651;BME280;11492;42.646;23.400;2023-02-17T02:21:07;95921.81;;;2.25;61.59
22651;BME280;11492;42.646;23.400;2023-02-17T02:23:55;95924.91;;;2.18;62.02
22651;BME280;11492;42.646;23.400;2023-02-17T02:37:34;95925.47;;;1.86;64.29
22651;BME280;11492;42.646;23.400;2023-02-17T02:40:05;95922.00;;;1.99;63.48
22651;BME280;11492;42.646;23.400;2023-02-17T02:42:33;95925.56;;;1.97;63.93
22651;BME280;11492;42.646;23.400;2023-02-17T02:44:59;95923.28;;;1.81;64.47
22651;BME280;11492;42.646;23.400;2023-02-17T02:47:45;95931.88;;;1.91;63.85
22651;BME280;11492;42.646;23.400;2023-02-17T02:50:15;95923.94;;;1.96;64.43
22651;BME280;11492;42.646;23.400;2023-02-17T03:08:11;95930.50;;;2.10;63.22
22651;BME280;11492;42.646;23.400;2023-02-17T03:10:48;95927.84;;;1.89;64.32
22651;BME280;11492;42.646;23.400;2023-02-17T03:13:16;95929.25;;;1.80;63.68
22651;BME280;11492;42.646;23.400;2023-02-17T03:15:43;95934.13;;;1.96;64.02
22651;BME280;11492;42.646;23.400;2023-02-17T03:18:09;95910.13;;;1.87;64.10
22651;BME280;11492;42.646;23.400;2023-02-17T03:20:37;95921.00;;;1.89;64.15
22651;BME280;11492;42.646;23.400;2023-02-17T03:23:04;95925.34;;;1.99;63.60
22651;BME280;11492;42.646;23.400;2023-02-17T03:25:30;95911.94;;;1.85;63.43
22651;BME280;11492;42.646;23.400;2023-02-17T03:27:55;95938.28;;;1.97;63.86
22651;BME280;11492;42.646;23.400;2023-02-17T03:30:21;95933.00;;;1.99;63.10
22651;BME280;11492;42.646;23.400;2023-02-17T03:32:47;95927.28;;;1.96;63.15
22651;BME280;11492;42.646;23.400;2023-02-17T03:35:12;95939.63;;;2.02;63.12
22651;BME280;11492;42.646;23.400;2023-02-17T03:37:38;95923.16;;;1.83;63.41
22651;BME280;11492;42.646;23.400;2023-02-17T03:40:05;95932.09;;;1.88;64.00
22651;BME280;11492;42.646;23.400;2023-02-17T03:42:31;95935.34;;;1.90;64.26
22651;BME280;11492;42.646;23.400;2023-02-17T03:44:57;95933.94;;;1.86;63.65
22651;BME280;11492;42.646;23.400;2023-02-17T03:47:22;95945.03;;;1.85;64.20
22651;BME280;11492;42.646;23.400;2023-02-17T03:49:48;95926.44;;;1.73;64.57
22651;BME280;11492;42.646;23.400;2023-02-17T03:52:13;95923.00;;;1.61;64.90
22651;BME280;11492;42.646;23.400;2023-02-17T03:54:39;95924.94;;;1.58;64.76
22651;BME280;11492;42.646;23.400;2023-02-17T03:57:04;95923.41;;;1.55;64.92
22651;BME280;11492;42.646;23.400;2023-02-17T03:59:29;95924.81;;;1.59;65.63
22651;BME280;11492;42.646;23.400;2023-02-17T04:01:55;95932.16;;;1.64;65.39
22651;BME280;11492;42.646;23.400;2023-02-17T04:04:20;95912.25;;;1.46;65.82
22651;BME280;11492;42.646;23.400;2023-02-17T04:06:46;95929.81;;;1.48;65.11
22651;BME280;11492;42.646;23.400;2023-02-17T04:09:11;95912.16;;;1.35;66.01
22651;BME280;11492;42.646;23.400;2023-02-17T04:11:37;95912.31;;;1.44;66.19
22651;BME280;11492;42.646;23.400;2023-02-17T04:14:02;95916.97;;;1.50;65.38
22651;BME280;11492;42.646;23.400;2023-02-17T04:16:28;95915.47;;;1.48;65.89
22651;BME280;11492;42.646;23.400;2023-02-17T04:18:53;95910.69;;;1.55;65.43
22651;BME280;11492;42.646;23.400;2023-02-17T04:21:19;95913.31;;;1.54;65.52
22651;BME280;11492;42.646;23.400;2023-02-17T04:23:44;95915.66;;;1.69;65.93
22651;BME280;11492;42.646;23.400;2023-02-17T04:26:10;95921.47;;;1.71;65.11
22651;BME280;11492;42.646;23.400;2023-02-17T04:28:39;95936.16;;;1.91;65.16
22651;BME280;11492;42.646;23.400;2023-02-17T04:31:05;95929.38;;;1.79;65.26
22651;BME280;11492;42.646;23.400;2023-02-17T04:33:31;95929.06;;;1.83;64.58
22651;BME280;11492;42.646;23.400;2023-02-17T04:35:56;95934.53;;;1.90;65.04
22651;BME280;11492;42.646;23.400;2023-02-17T04:38:27;95912.06;;;1.84;64.75
22651;BME280;11492;42.646;23.400;2023-02-17T04:40:55;95919.16;;;1.91;65.15
22651;BME280;11492;42.646;23.400;2023-02-17T04:43:22;95936.22;;;2.01;64.28
22651;BME280;11492;42.646;23.400;2023-02-17T04:45:47;95929.00;;;2.08;63.71
22651;BME280;11492;42.646;23.400;2023-02-17T04:48:13;95924.81;;;2.07;63.88
22651;BME280;11492;42.646;23.400;2023-02-17T04:50:38;95934.00;;;2.09;64.64
22651;BME280;11492;42.646;23.400;2023-02-17T04:53:04;95929.59;;;2.11;64.71
22651;BME280;11492;42.646;23.400;2023-02-17T04:55:29;95932.06;;;2.13;64.46
22651;BME280;11492;42.646;23.400;2023-02-17T04:57:55;95932.06;;;2.13;64.10
22651;BME280;11492;42.646;23.400;2023-02-17T05:00:21;95925.16;;;2.02;63.94
22651;BME280;11492;42.646;23.400;2023-02-17T05:02:46;95925.91;;;2.15;64.00
22651;BME280;11492;42.646;23.400;2023-02-17T05:05:11;95931.13;;;2.14;63.31
22651;BME280;11492;42.646;23.400;2023-02-17T05:07:40;95940.75;;;2.21;63.72
22651;BME280;11492;42.646;23.400;2023-02-17T05:10:06;95938.78;;;2.01;63.85
22651;BME280;11492;42.646;23.400;2023-02-17T05:12:32;95956.28;;;2.06;63.77
22651;BME280;11492;42.646;23.400;2023-02-17T05:14:57;95937.63;;;1.82;63.91
22651;BME280;11492;42.646;23.400;2023-02-17T05:17:23;95944.34;;;1.83;63.84
22651;BME280;11492;42.646;23.400;2023-02-17T05:19:48;95944.94;;;1.74;63.77
22651;BME280;11492;42.646;23.400;2023-02-17T05:22:13;95955.94;;;1.75;64.00
22651;BME280;11492;42.646;23.400;2023-02-17T05:24:39;95962.03;;;1.85;64.32
22651;BME280;11492;42.646;23.400;2023-02-17T05:27:04;95960.28;;;1.85;64.38
22651;BME280;11492;42.646;23.400;2023-02-17T05:29:30;95980.06;;;1.82;64.54
22651;BME280;11492;42.646;23.400;2023-02-17T05:31:55;95964.94;;;1.56;65.36
22651;BME280;11492;42.646;23.400;2023-02-17T05:34:21;95974.47;;;1.65;65.17
22651;BME280;11492;42.646;23.400;2023-02-17T05:36:46;95977.31;;;1.73;64.89
22651;BME280;11492;42.646;23.400;2023-02-17T05:39:11;95968.88;;;1.60;65.40
22651;BME280;11492;42.646;23.400;2023-02-17T05:41:37;95984.44;;;1.80;66.26
22651;BME280;11492;42.646;23.400;2023-02-17T05:44:02;95980.53;;;1.99;67.30
22651;BME280;11492;42.646;23.400;2023-02-17T05:46:28;95977.88;;;2.00;64.90
22651;BME280;11492;42.646;23.400;2023-02-17T05:48:53;95974.03;;;2.07;64.67
22651;BME280;11492;42.646;23.400;2023-02-17T05:51:19;95992.31;;;2.24;64.62
22651;BME280;11492;42.646;23.400;2023-02-17T05:53:44;95985.44;;;2.37;64.28
22651;BME280;11492;42.646;23.400;2023-02-17T05:56:10;95981.44;;;2.46;63.33
22651;BME280;11492;42.646;23.400;2023-02-17T05:58:35;95989.34;;;2.53;63.36
22651;BME280;11492;42.646;23.400;2023-02-17T06:01:00;95981.81;;;2.29;63.08
22651;BME280;11492;42.646;23.400;2023-02-17T06:03:26;95993.69;;;2.41;63.09
22651;BME280;11492;42.646;23.400;2023-02-17T06:05:51;95986.91;;;2.52;63.68
22651;BME280;11492;42.646;23.400;2023-02-17T06:08:17;95990.75;;;2.57;62.91
22651;BME280;11492;42.646;23.400;2023-02-17T06:10:42;95998.97;;;2.73;63.62
22651;BME280;11492;42.646;23.400;2023-02-17T06:13:08;96005.97;;;2.82;63.77
22651;BME280;11492;42.646;23.400;2023-02-17T06:15:33;95996.69;;;2.81;62.27
22651;BME280;11492;42.646;23.400;2023-02-17T06:17:59;95995.69;;;2.94;62.74
22651;BME280;11492;42.646;23.400;2023-02-17T06:20:24;96001.84;;;2.92;61.36
22651;BME280;11492;42.646;23.400;2023-02-17T06:22:50;95983.50;;;2.87;61.70
22651;BME280;11492;42.646;23.400;2023-02-17T06:25:15;95996.63;;;2.93;61.57
22651;BME280;11492;42.646;23.400;2023-02-17T06:27:40;95994.19;;;2.92;61.40
22651;BME280;11492;42.646;23.400;2023-02-17T06:30:09;96001.53;;;2.96;61.87
22651;BME280;11492;42.646;23.400;2023-02-17T06:32:34;96014.16;;;2.97;61.66
22651;BME280;11492;42.646;23.400;2023-02-17T06:35:00;95997.38;;;3.06;61.84
22651;BME280;11492;42.646;23.400;2023-02-17T06:37:25;95995.81;;;3.16;61.73
22651;BME280;11492;42.646;23.400;2023-02-17T06:39:51;96010.06;;;3.18;61.18
22651;BME280;11492;42.646;23.400;2023-02-17T06:42:16;96000.34;;;3.23;61.72
22651;BME280;11492;42.646;23.400;2023-02-17T06:44:41;96009.31;;;3.39;62.22
22651;BME280;11492;42.646;23.400;2023-02-17T06:47:07;96003.53;;;3.48;61.03
22651;BME280;11492;42.646;23.400;2023-02-17T06:49:32;96010.28;;;3.60;60.42
22651;BME280;11492;42.646;23.400;2023-02-17T06:51:58;96003.47;;;3.71;61.40
22651;BME280;11492;42.646;23.400;2023-02-17T06:54:23;96002.19;;;3.76;60.75
22651;BME280;11492;42.646;23.400;2023-02-17T06:56:48;96002.53;;;3.83;60.81
22651;BME280;11492;42.646;23.400;2023-02-17T06:59:14;96013.94;;;3.90;60.53
22651;BME280;11492;42.646;23.400;2023-02-17T07:01:39;96019.28;;;3.97;60.37
22651;BME280;11492;42.646;23.400;2023-02-17T07:04:05;96022.06;;;4.05;60.43
22651;BME280;11492;42.646;23.400;2023-02-17T07:06:30;96014.88;;;4.10;60.64
22651;BME280;11492;42.646;23.400;2023-02-17T07:08:55;96020.00;;;4.21;60.30
22651;BME280;11492;42.646;23.400;2023-02-17T07:11:21;96025.31;;;4.29;60.82
22651;BME280;11492;42.646;23.400;2023-02-17T07:13:47;96013.25;;;4.31;59.68
22651;BME280;11492;42.646;23.400;2023-02-17T07:16:13;96013.38;;;4.40;58.90
22651;BME280;11492;42.646;23.400;2023-02-17T07:18:39;96008.34;;;4.49;59.17
22651;BME280;11492;42.646;23.400;2023-02-17T07:21:06;96024.59;;;4.59;59.04
22651;BME280;11492;42.646;23.400;2023-02-17T07:23:32;96025.63;;;4.68;59.66
22651;BME280;11492;42.646;23.400;2023-02-17T07:26:06;96021.44;;;4.77;58.51
22651;BME280;11492;42.646;23.400;2023-02-17T07:28:34;96019.66;;;4.89;58.91
22651;BME280;11492;42.646;23.400;2023-02-17T07:31:13;96009.50;;;4.98;58.24
22651;BME280;11492;42.646;23.400;2023-02-17T07:33:39;96035.19;;;5.07;57.56
22651;BME280;11492;42.646;23.400;2023-02-17T07:36:15;96023.28;;;5.17;57.85
22651;BME280;11492;42.646;23.400;2023-02-17T07:38:41;96021.06;;;5.23;57.81
22651;BME280;11492;42.646;23.400;2023-02-17T07:41:19;96030.00;;;5.29;57.07
22651;BME280;11492;42.646;23.400;2023-02-17T07:43:46;96027.25;;;5.41;55.86
22651;BME280;11492;42.646;23.400;2023-02-17T07:46:12;96025.13;;;5.46;56.60
22651;BME280;11492;42.646;23.400;2023-02-17T07:48:38;96034.38;;;5.58;56.14
22651;BME280;11492;42.646;23.400;2023-02-17T07:51:05;96026.31;;;5.62;55.54
22651;BME280;11492;42.646;23.400;2023-02-17T07:53:32;96016.75;;;5.75;55.47
22651;BME280;11492;42.646;23.400;2023-02-17T07:55:58;96025.31;;;5.85;56.46
22651;BME280;11492;42.646;23.400;2023-02-17T07:58:23;96009.69;;;5.88;55.96
22651;BME280;11492;42.646;23.400;2023-02-17T08:00:49;96020.19;;;6.14;57.07
22651;BME280;11492;42.646;23.400;2023-02-17T08:03:14;96010.66;;;6.55;55.80
22651;BME280;11492;42.646;23.400;2023-02-17T08:05:40;96011.94;;;6.88;56.63
22651;BME280;11492;42.646;23.400;2023-02-17T08:08:08;96018.88;;;7.34;53.30
22651;BME280;11492;42.646;23.400;2023-02-17T08:10:52;96020.25;;;7.38;52.67
22651;BME280;11492;42.646;23.400;2023-02-17T08:13:36;96022.69;;;7.49;53.36
22651;BME280;11492;42.646;23.400;2023-02-17T08:16:01;96023.22;;;7.62;52.16
22651;BME280;11492;42.646;23.400;2023-02-17T08:18:27;96011.94;;;7.81;52.41
22651;BME280;11492;42.646;23.400;2023-02-17T08:20:52;96009.53;;;7.89;51.00
22651;BME280;11492;42.646;23.400;2023-02-17T08:23:21;96016.13;;;7.92;51.03
22651;BME280;11492;42.646;23.400;2023-02-17T08:25:46;96008.97;;;7.95;51.36
22651;BME280;11492;42.646;23.400;2023-02-17T08:28:11;96018.03;;;8.08;50.72
22651;BME280;11492;42.646;23.400;2023-02-17T08:30:37;96004.13;;;8.37;50.01
22651;BME280;11492;42.646;23.400;2023-02-17T08:33:03;95997.91;;;10.46;46.21
22651;BME280;11492;42.646;23.400;2023-02-17T08:35:29;95987.41;;;13.14;39.00
22651;BME280;11492;42.646;23.400;2023-02-17T08:37:55;95987.75;;;15.14;35.41
22651;BME280;11492;42.646;23.400;2023-02-17T08:40:20;95982.44;;;16.72;32.16
22651;BME280;11492;42.646;23.400;2023-02-17T08:42:46;95973.56;;;17.59;30.89
22651;BME280;11492;42.646;23.400;2023-02-17T08:45:13;95972.50;;;18.06;30.05
22651;BME280;11492;42.646;23.400;2023-02-17T08:47:39;95973.47;;;18.95;29.38
22651;BME280;11492;42.646;23.400;2023-02-17T08:50:05;95990.47;;;20.09;26.88
22651;BME280;11492;42.646;23.400;2023-02-17T08:52:33;95975.41;;;20.52;26.46
22651;BME280;11492;42.646;23.400;2023-02-17T08:54:59;95974.16;;;21.96;24.99
22651;BME280;11492;42.646;23.400;2023-02-17T08:57:24;95966.09;;;21.80;24.64
22651;BME280;11492;42.646;23.400;2023-02-17T08:59:51;95975.88;;;22.31;24.88
22651;BME280;11492;42.646;23.400;2023-02-17T09:02:16;95977.75;;;23.21;23.61
22651;BME280;11492;42.646;23.400;2023-02-17T09:04:42;95975.16;;;23.59;23.53
22651;BME280;11492;42.646;23.400;2023-02-17T09:07:10;95968.03;;;23.71;23.56
22651;BME280;11492;42.646;23.400;2023-02-17T09:09:36;95972.94;;;24.06;22.82
22651;BME280;11492;42.646;23.400;2023-02-17T09:12:01;95973.03;;;24.11;22.47
22651;BME280;11492;42.646;23.400;2023-02-17T09:14:27;95971.59;;;24.80;22.12
22651;BME280;11492;42.646;23.400;2023-02-17T09:16:54;95966.66;;;25.04;21.85
22651;BME280;11492;42.646;23.400;2023-02-17T09:19:20;95972.22;;;24.87;21.69
22651;BME280;11492;42.646;23.400;2023-02-17T09:21:46;95964.03;;;24.24;21.99
22651;BME280;11492;42.646;23.400;2023-02-17T09:24:13;95972.84;;;24.61;22.26
22651;BME280;11492;42.646;23.400;2023-02-17T09:26:39;95964.78;;;25.21;21.75
22651;BME280;11492;42.646;23.400;2023-02-17T09:29:05;95965.69;;;25.48;21.21
22651;BME280;11492;42.646;23.400;2023-02-17T09:31:33;95955.50;;;25.40;21.25
22651;BME280;11492;42.646;23.400;2023-02-17T09:33:59;95960.53;;;25.57;20.58
22651;BME280;11492;42.646;23.400;2023-02-17T09:36:30;95953.72;;;25.87;21.09
22651;BME280;11492;42.646;23.400;2023-02-17T09:38:56;95954.94;;;26.01;20.95
22651;BME280;11492;42.646;23.400;2023-02-17T09:43:59;95953.69;;;25.82;20.46
22651;BME280;11492;42.646;23.400;2023-02-17T09:46:32;95952.25;;;25.33;20.62
22651;BME280;11492;42.646;23.400;2023-02-17T09:49:07;95941.66;;;25.33;21.35
22651;BME280;11492;42.646;23.400;2023-02-17T09:51:39;95955.53;;;25.02;21.31
22651;BME280;11492;42.646;23.400;2023-02-17T09:56:43;95932.41;;;25.14;20.88
22651;BME280;11492;42.646;23.400;2023-02-17T09:59:15;95942.06;;;25.41;21.38
22651;BME280;11492;42.646;23.400;2023-02-17T10:01:43;95949.34;;;25.77;20.89
22651;BME280;11492;42.646;23.400;2023-02-17T10:04:23;95936.91;;;25.35;21.24
22651;BME280;11492;42.646;23.400;2023-02-17T10:09:53;95938.72;;;24.92;20.86
22651;BME280;11492;42.646;23.400;2023-02-17T10:12:26;95922.47;;;24.51;21.54
22651;BME280;11492;42.646;23.400;2023-02-17T10:15:03;95935.91;;;23.90;19.48
22651;BME280;11492;42.646;23.400;2023-02-17T10:20:24;95920.03;;;24.01;18.58
22651;BME280;11492;42.646;23.400;2023-02-17T10:23:04;95919.44;;;24.59;18.28
22651;BME280;11492;42.646;23.400;2023-02-17T10:28:08;95906.06;;;26.44;17.63
22651;BME280;11492;42.646;23.400;2023-02-17T10:36:19;95884.97;;;26.95;16.09
22651;BME280;11492;42.646;23.400;2023-02-17T10:38:52;95892.25;;;27.79;15.75
22651;BME280;11492;42.646;23.400;2023-02-17T10:41:32;95895.25;;;28.17;15.88
22651;BME280;11492;42.646;23.400;2023-02-17T10:44:00;95887.50;;;27.86;15.87
22651;BME280;11492;42.646;23.400;2023-02-17T10:46:29;95873.06;;;27.57;16.21
22651;BME280;11492;42.646;23.400;2023-02-17T10:48:56;95880.09;;;28.03;15.67
22651;BME280;11492;42.646;23.400;2023-02-17T10:51:28;95875.59;;;28.67;15.58
22651;BME280;11492;42.646;23.400;2023-02-17T10:54:06;95864.59;;;29.75;15.22
22651;BME280;11492;42.646;23.400;2023-02-17T10:56:40;95865.94;;;29.10;15.13
22651;BME280;11492;42.646;23.400;2023-02-17T10:59:20;95847.72;;;29.89;14.86
22651;BME280;11492;42.646;23.400;2023-02-17T11:01:48;95855.91;;;29.59;14.97
22651;BME280;11492;42.646;23.400;2023-02-17T11:04:14;95858.78;;;29.73;14.92
22651;BME280;11492;42.646;23.400;2023-02-17T11:06:43;95866.72;;;30.20;14.80
22651;BME280;11492;42.646;23.400;2023-02-17T11:09:26;95853.69;;;30.19;14.43
22651;BME280;11492;42.646;23.400;2023-02-17T11:12:15;95842.50;;;30.50;14.34
22651;BME280;11492;42.646;23.400;2023-02-17T11:14:48;95833.78;;;30.39;14.49
22651;BME280;11492;42.646;23.400;2023-02-17T11:17:34;95870.56;;;28.51;14.91
22651;BME280;11492;42.646;23.400;2023-02-17T11:22:45;95847.34;;;29.00;15.23
22651;BME280;11492;42.646;23.400;2023-02-17T11:25:29;95859.09;;;28.30;15.16
22651;BME280;11492;42.646;23.400;2023-02-17T11:27:58;95842.00;;;29.67;14.86
22651;BME280;11492;42.646;23.400;2023-02-17T11:30:25;95843.09;;;30.98;14.30
22651;BME280;11492;42.646;23.400;2023-02-17T11:32:51;95841.38;;;31.11;13.84
22651;BME280;11492;42.646;23.400;2023-02-17T11:37:52;95833.84;;;29.97;14.55
22651;BME280;11492;42.646;23.400;2023-02-17T11:40:57;95837.88;;;30.60;14.46
22651;BME280;11492;42.646;23.400;2023-02-17T11:43:22;95825.69;;;30.77;14.21
22651;BME280;11492;42.646;23.400;2023-02-17T11:51:38;95824.16;;;30.94;14.02
22651;BME280;11492;42.646;23.400;2023-02-17T11:54:30;95827.91;;;32.80;13.38
22651;BME280;11492;42.646;23.400;2023-02-17T11:57:12;95813.63;;;30.84;13.90
22651;BME280;11492;42.646;23.400;2023-02-17T11:59:55;95819.44;;;32.28;13.39
22651;BME280;11492;42.646;23.400;2023-02-17T12:16:39;95799.66;;;33.66;13.08
22651;BME280;11492;42.646;23.400;2023-02-17T12:38:08;95771.03;;;33.75;12.96
22651;BME280;11492;42.646;23.400;2023-02-17T12:40:42;95762.72;;;33.50;13.16
22651;BME280;11492;42.646;23.400;2023-02-17T12:43:22;95766.00;;;33.47;13.13
22651;BME280;11492;42.646;23.400;2023-02-17T12:45:50;95764.69;;;33.93;12.75
22651;BME280;11492;42.646;23.400;2023-02-17T12:48:28;95760.28;;;34.32;12.48
22651;BME280;11492;42.646;23.400;2023-02-17T12:58:54;95755.22;;;33.26;12.66
22651;BME280;11492;42.646;23.400;2023-02-17T13:01:24;95758.72;;;32.42;13.65
22651;BME280;11492;42.646;23.400;2023-02-17T13:03:50;95743.84;;;32.36;13.44
22651;BME280;11492;42.646;23.400;2023-02-17T13:06:37;95749.44;;;33.45;12.87
22651;BME280;11492;42.646;23.400;2023-02-17T13:09:25;95745.41;;;34.86;12.59
22651;BME280;11492;42.646;23.400;2023-02-17T13:11:53;95756.50;;;35.39;12.07
22651;BME280;11492;42.646;23.400;2023-02-17T13:14:39;95752.19;;;35.21;12.12
22651;BME280;11492;42.646;23.400;2023-02-17T13:17:04;95748.66;;;36.17;11.53
22651;BME280;11492;42.646;23.400;2023-02-17T13:19:32;95747.00;;;36.66;12.08
22651;BME280;11492;42.646;23.400;2023-02-17T13:21:59;95747.53;;;36.35;11.43
22651;BME280;11492;42.646;23.400;2023-02-17T13:26:56;95736.41;;;36.53;11.88
22651;BME280;11492;42.646;23.400;2023-02-17T13:31:55;95730.88;;;37.52;11.17
22651;BME280;11492;42.646;23.400;2023-02-17T13:34:31;95734.13;;;37.66;11.02
22651;BME280;11492;42.646;23.400;2023-02-17T13:36:59;95730.16;;;36.86;11.71
22651;BME280;11492;42.646;23.400;2023-02-17T13:41:55;95737.00;;;33.84;12.64
22651;BME280;11492;42.646;23.400;2023-02-17T13:44:54;95734.69;;;31.38;13.21
22651;BME280;11492;42.646;23.400;2023-02-17T13:47:32;95716.97;;;29.38;14.71
22651;BME280;11492;42.646;23.400;2023-02-17T13:49:58;95727.56;;;27.59;15.42
22651;BME280;11492;42.646;23.400;2023-02-17T13:52:30;95738.16;;;26.19;16.48
22651;BME280;11492;42.646;23.400;2023-02-17T13:55:01;95728.47;;;25.11;16.74
22651;BME280;11492;42.646;23.400;2023-02-17T13:57:29;95742.81;;;24.51;17.42
22651;BME280;11492;42.646;23.400;2023-02-17T14:02:30;95741.84;;;22.96;18.51
22651;BME280;11492;42.646;23.400;2023-02-17T14:05:10;95741.78;;;22.29;19.04
22651;BME280;11492;42.646;23.400;2023-02-17T14:07:40;95738.84;;;21.70;19.76
22651;BME280;11492;42.646;23.400;2023-02-17T14:10:24;95738.81;;;21.07;19.68
22651;BME280;11492;42.646;23.400;2023-02-17T14:12:51;95747.03;;;20.70;19.92
22651;BME280;11492;42.646;23.400;2023-02-17T14:15:23;95740.03;;;20.29;20.27
22651;BME280;11492;42.646;23.400;2023-02-17T14:17:49;95751.81;;;20.02;20.56
22651;BME280;11492;42.646;23.400;2023-02-17T14:20:28;95756.97;;;19.91;21.32
22651;BME280;11492;42.646;23.400;2023-02-17T14:23:01;95742.91;;;19.86;21.82
22651;BME280;11492;42.646;23.400;2023-02-17T14:25:30;95739.78;;;19.77;21.93
22651;BME280;11492;42.646;23.400;2023-02-17T14:27:55;95754.13;;;19.75;22.24
22651;BME280;11492;42.646;23.400;2023-02-17T14:30:36;95736.41;;;19.47;22.71
22651;BME280;11492;42.646;23.400;2023-02-17T14:33:06;95758.72;;;19.31;22.87
22651;BME280;11492;42.646;23.400;2023-02-17T14:35:33;95755.22;;;18.76;23.72
22651;BME280;11492;42.646;23.400;2023-02-17T14:38:19;95753.78;;;18.44;24.28
22651;BME280;11492;42.646;23.400;2023-02-17T14:40:46;95744.53;;;18.35;28.18
22651;BME280;11492;42.646;23.400;2023-02-17T14:43:11;95756.59;;;18.36;26.65
22651;BME280;11492;42.646;23.400;2023-02-17T14:45:37;95755.66;;;18.24;25.37
22651;BME280;11492;42.646;23.400;2023-02-17T14:48:02;95758.91;;;18.13;25.45
22651;BME280;11492;42.646;23.400;2023-02-17T14:50:31;95762.53;;;18.12;25.02
22651;BME280;11492;42.646;23.400;2023-02-17T14:52:56;95760.13;;;18.04;25.33
22651;BME280;11492;42.646;23.400;2023-02-17T14:55:49;95749.31;;;17.82;25.43